Date,TemperatureHighF,TemperatureAvgF,TemperatureLowF,DewpointHighF,DewpointAvgF,DewpointLowF,HumidityHigh,HumidityAvg,HumidityLow,PressureMaxIn,PressureMinIn,WindSpeedMaxMPH,WindSpeedAvgMPH,GustSpeedMaxMPH,PrecipitationSumIn
2013-1-4,37.2,30.2,28.8,24.8,24.1,23.5,82,78,60,30.40,30.37,7,2,11,0.00
2013-1-5,31.3,29.9,29.3,27.8,27.2,26.6,91,89,83,30.28,30.22,4,0,5,0.01
2013-1-6,38.5,30.8,25.1,30.3,26.9,22.0,92,85,70,30.22,30.07,7,1,13,0.03
2013-1-7,51.1,40.3,30.4,41.4,34.8,27.8,95,82,66,30.07,29.84,27,7,32,0.08
2013-1-8,50.5,46.3,42.9,41.5,38.4,35.3,85,74,68,30.11,29.86,20,5,24,0.00
2013-1-9,53.5,46.4,37.0,39.7,35.1,28.1,72,65,51,29.86,29.61,24,5,32,0.00
2013-1-10,43.9,37.1,33.2,27.7,23.6,16.1,71,58,45,30.00,29.83,16,4,18,0.00
2013-1-11,43.2,31.1,23.3,26.6,19.4,10.7,85,63,41,30.26,30.00,16,3,19,0.00
2013-1-12,39.9,25.2,16.2,23.4,17.7,12.0,91,75,45,30.37,30.25,7,1,9,0.00
2013-1-13,36.5,24.1,15.7,21.6,17.4,11.7,87,76,50,30.46,30.37,6,1,8,0.00
2013-1-14,43.9,28.9,20.8,26.3,22.0,17.0,87,76,44,30.46,30.31,7,0,10,0.00
2013-1-15,42.8,26.8,19.4,25.9,20.7,16.3,89,79,49,30.61,30.47,5,1,6,0.00
2013-1-16,30.6,26.3,17.5,25.0,21.7,14.0,89,83,76,30.62,30.55,5,0,6,0.00
2013-1-17,31.8,30.0,28.8,25.6,24.8,23.6,84,81,76,30.58,30.40,5,0,7,0.00
2013-1-18,31.6,29.2,27.3,26.4,24.8,23.4,89,83,77,30.40,30.29,7,1,10,0.00
2013-1-19,31.6,29.3,28.5,25.4,24.7,24.2,86,83,77,30.48,30.37,6,0,7,0.00
2013-1-20,31.0,29.2,28.2,24.8,24.2,23.7,84,81,76,30.56,30.44,5,0,8,0.00
2013-1-21,28.8,27.4,26.0,24.2,22.7,21.1,85,82,80,30.44,30.34,5,0,8,0.00
2013-1-22,27.5,25.9,24.7,21.9,20.1,18.5,85,79,70,30.36,30.20,6,1,8,0.00
2013-1-23,30.0,27.5,25.7,24.2,21.8,20.1,83,79,73,30.21,29.98,10,1,12,0.00
2013-1-24,37.0,29.7,21.6,28.5,24.5,18.6,91,81,63,30.27,30.11,7,1,12,0.02
2013-1-25,35.2,32.1,29.0,31.1,28.8,26.4,93,87,81,30.16,29.95,2,0,2,0.04
2013-1-26,37.5,34.3,32.5,35.5,32.5,31.0,96,93,87,30.00,29.92,1,0,4,0.04
2013-1-27,49.5,38.4,30.7,35.8,31.9,28.9,94,78,57,30.03,29.93,19,2,24,0.00
2013-1-28,42.9,39.5,31.6,34.3,32.2,28.4,90,75,66,29.97,29.88,26,8,27,0.00
2013-1-29,51.6,45.7,41.5,38.1,34.4,31.0,73,65,53,30.18,29.91,24,8,29,0.00
2013-1-30,53.5,47.5,44.1,40.4,37.8,35.5,77,69,59,30.25,30.15,26,11,31,0.00
2013-1-31,58.3,49.5,41.9,41.2,38.9,35.4,78,67,50,30.28,30.19,17,5,20,0.00